Time;durP1;ratioP1;P1;durP2;ratioP2;P2;SDS_P1;SDS_P2;PMS_P1;PMS_P2;Temp;Humidity;BMP_temperature;BMP_pressure;BME280_temperature;BME280_humidity;BME280_pressure;Samples;Min_cycle;Max_cycle;Signal;HPM_P1;HPM_P2
2024/01/17 00:00:52;;;;;;;10.75;4.82;;;;;;;-0.59;100.00;99951.69;5003616;28;20050;-76
2024/01/17 00:03:19;;;;;;;6.70;4.38;;;;;;;-0.61;100.00;99951.63;4997839;28;20055;-76
2024/01/17 00:05:47;;;;;;;6.88;4.00;;;;;;;-0.62;100.00;99938.66;4993552;28;20045;-76
2024/01/17 00:08:14;;;;;;;7.03;3.95;;;;;;;-0.64;100.00;99945.50;4980719;28;20061;-76
2024/01/17 00:10:42;;;;;;;6.93;4.18;;;;;;;-0.65;100.00;99928.19;4957849;28;20053;-76
2024/01/17 00:13:09;;;;;;;4.60;3.90;;;;;;;-0.69;100.00;99932.38;4985642;28;20049;-77
2024/01/17 00:15:37;;;;;;;5.28;3.70;;;;;;;-0.71;100.00;99935.78;4989877;28;20487;-76
2024/01/17 00:18:04;;;;;;;5.47;3.65;;;;;;;-0.74;100.00;99931.34;4999949;28;20499;-78
2024/01/17 00:20:32;;;;;;;7.32;3.80;;;;;;;-0.75;100.00;99928.72;4992764;28;20046;-76
2024/01/17 00:23:00;;;;;;;8.45;3.65;;;;;;;-0.78;100.00;99919.16;5003141;28;20064;-76
2024/01/17 00:25:27;;;;;;;5.43;3.50;;;;;;;-0.82;100.00;99928.50;4959169;28;20060;-76
2024/01/17 00:27:54;;;;;;;5.35;3.10;;;;;;;-0.84;100.00;99912.06;4993133;28;20050;-76
2024/01/17 00:30:23;;;;;;;7.70;3.20;;;;;;;-0.85;100.00;99910.31;4993574;28;20049;-76
2024/01/17 00:32:50;;;;;;;4.78;3.40;;;;;;;-0.85;100.00;99902.56;4997357;28;20102;-76
2024/01/17 00:35:18;;;;;;;7.13;2.95;;;;;;;-0.86;100.00;99918.88;5002122;28;20057;-76
2024/01/17 00:37:45;;;;;;;8.10;3.25;;;;;;;-0.86;100.00;99903.38;5000432;28;20415;-76
2024/01/17 00:40:14;;;;;;;5.80;3.38;;;;;;;-0.88;100.00;99902.44;4980706;28;20060;-76
2024/01/17 00:42:42;;;;;;;5.28;3.45;;;;;;;-0.88;100.00;99907.59;4961870;28;20050;-76
2024/01/17 00:45:10;;;;;;;5.40;3.08;;;;;;;-0.86;100.00;99894.72;4983065;28;20073;-77
2024/01/17 00:47:37;;;;;;;4.32;3.00;;;;;;;-0.87;100.00;99896.44;4998421;28;20046;-76
2024/01/17 00:50:05;;;;;;;5.72;3.30;;;;;;;-0.87;100.00;99896.44;5000381;28;20050;-76
2024/01/17 00:52:33;;;;;;;6.97;3.22;;;;;;;-0.86;100.00;99884.38;4982695;28;20054;-76
2024/01/17 00:55:00;;;;;;;6.70;2.88;;;;;;;-0.85;100.00;99880.97;5003964;28;20068;-76
2024/01/17 00:57:28;;;;;;;4.85;2.60;;;;;;;-0.85;100.00;99880.97;4962656;28;20054;-76
2024/01/17 00:59:55;;;;;;;5.18;2.90;;;;;;;-0.84;100.00;99878.44;4964850;28;20046;-76
2024/01/17 01:02:22;;;;;;;6.63;2.53;;;;;;;-0.83;100.00;99876.75;4977957;28;20049;-76
2024/01/17 01:04:50;;;;;;;4.35;2.40;;;;;;;-0.84;100.00;99873.25;5001522;28;20446;-76
2024/01/17 01:07:17;;;;;;;5.35;2.60;;;;;;;-0.82;100.00;99868.13;4994471;28;20482;-76
2024/01/17 01:09:45;;;;;;;4.70;2.75;;;;;;;-0.80;100.00;99875.09;4999347;28;20050;-76
2024/01/17 01:12:12;;;;;;;4.82;2.42;;;;;;;-0.79;100.00;99857.91;4959921;28;20064;-77
2024/01/17 01:14:40;;;;;;;8.50;2.92;;;;;;;-0.76;100.00;99864.88;4960063;28;21096;-76
2024/01/17 01:17:07;;;;;;;7.15;2.78;;;;;;;-0.73;100.00;99859.81;5001720;28;20495;-76
2024/01/17 01:19:35;;;;;;;7.00;2.63;;;;;;;-0.73;100.00;99852.06;5001644;28;20038;-76
2024/01/17 01:22:03;;;;;;;4.65;3.03;;;;;;;-0.72;100.00;99840.84;5002081;28;20123;-76
2024/01/17 01:24:30;;;;;;;5.05;2.45;;;;;;;-0.71;100.00;99846.09;4998955;28;20125;-76
2024/01/17 01:26:58;;;;;;;4.18;2.60;;;;;;;-0.71;100.00;99840.91;4992199;28;20052;-76
2024/01/17 01:29:26;;;;;;;4.32;2.80;;;;;;;-0.70;100.00;99821.09;4961470;28;20053;-76
2024/01/17 01:31:53;;;;;;;11.45;3.05;;;;;;;-0.69;100.00;99826.31;5003726;28;20050;-76
2024/01/17 01:34:20;;;;;;;4.93;2.70;;;;;;;-0.67;100.00;99818.59;5004003;28;20049;-76
2024/01/17 01:36:48;;;;;;;5.38;3.17;;;;;;;-0.68;100.00;99816.84;5000030;28;20041;-76
2024/01/17 01:39:15;;;;;;;3.97;2.80;;;;;;;-0.68;100.00;99822.00;5001583;28;20057;-76
2024/01/17 01:41:44;;;;;;;3.25;2.95;;;;;;;-0.68;100.00;99819.41;4991564;28;20088;-77
2024/01/17 01:44:11;;;;;;;6.97;3.40;;;;;;;-0.69;100.00;99830.63;4962333;28;20049;-76
2024/01/17 01:46:46;;;;;;;6.40;3.13;;;;;;;-0.69;100.00;99815.09;4989893;28;20053;-75
2024/01/17 01:49:15;;;;;;;4.78;3.53;;;;;;;-0.71;100.00;99822.81;5003102;28;20046;-77
2024/01/17 01:51:44;;;;;;;4.82;3.33;;;;;;;-0.71;100.00;99821.94;5000500;28;20410;-76
2024/01/17 01:54:18;;;;;;;6.97;3.97;;;;;;;-0.72;100.00;99821.03;5000619;28;20049;-77
2024/01/17 01:56:47;;;;;;;7.22;3.22;;;;;;;-0.73;100.00;99821.00;5002759;28;20073;-76
2024/01/17 01:59:19;;;;;;;6.30;3.22;;;;;;;-0.73;100.00;99808.06;4969219;28;20052;-77
2024/01/17 02:01:48;;;;;;;7.20;3.58;;;;;;;-0.75;100.00;99805.44;4990341;28;20046;-76
2024/01/17 02:04:16;;;;;;;8.20;4.10;;;;;;;-0.76;100.00;99814.00;4999074;28;20069;-74
2024/01/17 02:06:45;;;;;;;5.40;4.30;;;;;;;-0.77;100.00;99808.81;5002047;28;20057;-76
2024/01/17 02:09:14;;;;;;;6.63;3.90;;;;;;;-0.78;100.00;99805.31;5001536;28;20049;-77
2024/01/17 02:11:42;;;;;;;6.20;4.22;;;;;;;-0.79;100.00;99799.28;4997603;28;20562;-76
2024/01/17 02:14:10;;;;;;;8.10;4.93;;;;;;;-0.78;100.00;99797.56;5004050;28;20050;-77
2024/01/17 02:16:38;;;;;;;8.80;4.68;;;;;;;-0.81;100.00;99790.59;4956045;28;20573;-76
2024/01/17 02:19:07;;;;;;;8.63;4.43;;;;;;;-0.80;100.00;99792.31;4981466;28;20096;-76
2024/01/17 02:21:35;;;;;;;7.55;4.43;;;;;;;-0.81;100.00;99795.75;5004381;28;20054;-76
2024/01/17 02:24:22;;;;;;;7.38;4.75;;;;;;;-0.80;100.00;99786.28;4997132;28;20045;-76
2024/01/17 02:26:50;;;;;;;7.35;4.78;;;;;;;-0.81;100.00;99782.81;5013526;28;20053;-76
2024/01/17 02:29:18;;;;;;;11.15;5.25;;;;;;;-0.82;100.00;99773.28;4995689;28;20057;-76
2024/01/17 02:31:45;;;;;;;8.85;5.05;;;;;;;-0.82;100.00;99768.13;4965715;28;20495;-76
2024/01/17 02:34:13;;;;;;;8.60;4.72;;;;;;;-0.85;100.00;99765.47;4988064;28;20038;-76
2024/01/17 02:36:41;;;;;;;7.93;5.43;;;;;;;-0.84;100.00;99769.78;5004762;28;20068;-76
2024/01/17 02:39:09;;;;;;;8.43;5.25;;;;;;;-0.85;100.00;99760.28;4992809;28;20072;-76
2024/01/17 02:41:36;;;;;;;7.60;5.05;;;;;;;-0.87;100.00;99764.53;4978174;28;20045;-76
2024/01/17 02:44:04;;;;;;;6.90;4.93;;;;;;;-0.86;100.00;99757.66;5006765;28;20415;-76
2024/01/17 02:46:31;;;;;;;10.88;6.20;;;;;;;-0.84;100.00;99758.56;4965319;28;20422;-76
2024/01/17 02:48:59;;;;;;;8.70;5.95;;;;;;;-0.85;100.00;99746.44;4997304;28;20042;-76
2024/01/17 02:51:26;;;;;;;11.82;5.93;;;;;;;-0.86;100.00;99748.16;5003380;28;20069;-76
2024/01/17 02:53:54;;;;;;;15.05;5.75;;;;;;;-0.86;100.00;99737.81;5005278;28;20058;-76
2024/01/17 02:56:21;;;;;;;10.25;6.00;;;;;;;-0.86;100.00;99737.81;4991012;28;20392;-76
2024/01/17 02:58:49;;;;;;;12.02;6.05;;;;;;;-0.87;100.00;99737.75;4997153;28;20054;-76
2024/01/17 03:01:16;;;;;;;9.05;6.00;;;;;;;-0.88;100.00;99726.56;5006141;28;20065;-76
2024/01/17 03:03:43;;;;;;;14.35;6.07;;;;;;;-0.87;100.00;99725.75;4953104;28;20049;-77
2024/01/17 03:06:11;;;;;;;9.85;6.57;;;;;;;-0.89;100.00;99724.81;5021241;28;20050;-76
2024/01/17 03:08:38;;;;;;;9.18;6.18;;;;;;;-0.90;100.00;99719.59;4992106;28;20049;-77
2024/01/17 03:11:06;;;;;;;8.32;5.75;;;;;;;-0.92;100.00;99714.38;4994195;28;20065;-77
2024/01/17 03:13:33;;;;;;;11.00;6.45;;;;;;;-0.92;100.00;99705.72;5004310;28;20056;-76
2024/01/17 03:16:01;;;;;;;9.55;6.05;;;;;;;-0.92;100.00;99698.84;4995740;28;20049;-76
2024/01/17 03:18:29;;;;;;;9.02;6.38;;;;;;;-0.92;100.00;99696.25;4959258;28;20935;-76
2024/01/17 03:20:57;;;;;;;8.45;6.18;;;;;;;-0.92;100.00;99688.50;5011893;28;20495;-76
2024/01/17 03:23:24;;;;;;;9.90;6.07;;;;;;;-0.92;100.00;99679.88;5006433;28;20045;-76
2024/01/17 03:25:52;;;;;;;12.23;7.25;;;;;;;-0.92;100.00;99672.13;5002599;28;20045;-76
2024/01/17 03:28:19;;;;;;;11.07;6.25;;;;;;;-0.94;100.00;99659.13;4998359;28;20050;-76
2024/01/17 03:30:47;;;;;;;12.52;6.72;;;;;;;-0.95;100.00;99667.69;4984781;28;20064;-76
2024/01/17 03:33:15;;;;;;;9.82;6.50;;;;;;;-0.95;100.00;99652.19;4952217;28;20423;-76
2024/01/17 03:35:43;;;;;;;9.10;6.82;;;;;;;-0.98;100.00;99650.41;4992363;28;20061;-76
2024/01/17 03:38:10;;;;;;;9.63;6.13;;;;;;;-0.98;100.00;99662.47;5001102;28;20423;-76
2024/01/17 03:40:37;;;;;;;10.70;6.65;;;;;;;-0.99;100.00;99660.69;5002474;28;20407;-76
2024/01/17 03:43:05;;;;;;;11.75;7.07;;;;;;;-1.03;100.00;99659.72;5005394;28;20050;-76
2024/01/17 03:45:32;;;;;;;11.82;6.43;;;;;;;-1.04;100.00;99641.56;5003764;28;20042;-76
2024/01/17 03:47:59;;;;;;;12.30;7.15;;;;;;;-1.06;100.00;99640.63;4965315;28;20045;-76
2024/01/17 03:50:27;;;;;;;12.55;7.32;;;;;;;-1.07;100.00;99651.84;4993270;28;20491;-76
2024/01/17 03:52:54;;;;;;;11.93;7.47;;;;;;;-1.11;100.00;99650.84;4994115;28;20532;-76
2024/01/17 03:55:21;;;;;;;13.02;7.45;;;;;;;-1.13;100.00;99641.31;5005373;28;20049;-76
2024/01/17 03:57:49;;;;;;;17.35;7.32;;;;;;;-1.14;100.00;99634.38;4993528;28;20050;-76
2024/01/17 04:00:17;;;;;;;16.23;7.78;;;;;;;-1.18;100.00;99629.09;4996911;28;20468;-76
2024/01/17 04:02:44;;;;;;;14.88;8.07;;;;;;;-1.18;100.00;99625.63;4989920;28;20038;-77
2024/01/17 04:05:12;;;;;;;11.13;8.48;;;;;;;-1.19;100.00;99637.69;4953932;28;20069;-76
2024/01/17 04:07:40;;;;;;;17.67;9.32;;;;;;;-1.20;100.00;99611.78;4991296;28;20053;-76
2024/01/17 04:10:08;;;;;;;18.63;9.93;;;;;;;-1.22;100.00;99616.91;4997252;28;20069;-76
2024/01/17 04:12:36;;;;;;;16.73;8.48;;;;;;;-1.22;100.00;99609.16;4998587;28;20511;-76
2024/01/17 04:15:03;;;;;;;12.60;7.72;;;;;;;-1.24;100.00;99608.22;5003145;28;20049;-76
2024/01/17 04:17:31;;;;;;;15.70;8.38;;;;;;;-1.25;100.00;99590.97;4992728;28;20045;-76
2024/01/17 04:19:58;;;;;;;15.25;8.90;;;;;;;-1.28;100.00;99583.13;4955096;28;21032;-76
2024/01/17 04:22:26;;;;;;;16.80;8.27;;;;;;;-1.31;100.00;99577.84;4989797;28;20090;-76
2024/01/17 04:24:54;;;;;;;16.40;9.45;;;;;;;-1.31;100.00;99574.41;5002283;28;20407;-76
2024/01/17 04:27:21;;;;;;;16.17;8.30;;;;;;;-1.35;100.00;99573.44;4974049;28;20054;-76
2024/01/17 04:29:48;;;;;;;12.50;8.40;;;;;;;-1.37;100.00;99575.09;4998542;28;20522;-76
2024/01/17 04:32:16;;;;;;;12.27;8.88;;;;;;;-1.39;100.00;99567.28;4997366;28;20547;-76
2024/01/17 04:34:43;;;;;;;16.95;8.43;;;;;;;-1.40;100.00;99569.81;4949026;28;20042;-78
2024/01/17 04:37:11;;;;;;;16.75;8.43;;;;;;;-1.43;100.00;99555.09;4993582;28;20053;-77
2024/01/17 04:39:39;;;;;;;14.68;8.52;;;;;;;-1.43;100.00;99555.09;4998680;28;20414;-77
2024/01/17 04:42:06;;;;;;;14.15;8.70;;;;;;;-1.44;100.00;99553.34;5002893;28;20065;-74
2024/01/17 04:44:34;;;;;;;11.05;8.40;;;;;;;-1.45;100.00;99545.56;4986325;28;20042;-76
2024/01/17 04:47:02;;;;;;;12.40;8.52;;;;;;;-1.45;100.00;99545.56;5000605;28;20053;-76
2024/01/17 04:49:30;;;;;;;17.98;8.60;;;;;;;-1.45;100.00;99545.56;5001595;28;20068;-76
2024/01/17 04:51:58;;;;;;;13.63;8.88;;;;;;;-1.45;100.00;99542.97;4960638;28;20064;-76
2024/01/17 04:54:30;;;;;;;18.27;9.55;;;;;;;-1.46;100.00;99539.50;4983423;28;20053;-76
2024/01/17 04:56:58;;;;;;;14.68;9.25;;;;;;;-1.44;100.00;99544.72;4985739;28;20421;-77
2024/01/17 04:59:26;;;;;;;12.23;8.63;;;;;;;-1.45;100.00;99530.06;4989313;28;20054;-76
2024/01/17 05:01:53;;;;;;;11.50;8.38;;;;;;;-1.45;100.00;99533.50;4981576;28;20086;-76
2024/01/17 05:04:22;;;;;;;15.40;9.77;;;;;;;-1.45;100.00;99520.59;4991559;28;20046;-77
2024/01/17 05:06:50;;;;;;;16.02;9.07;;;;;;;-1.44;100.00;99530.09;4950945;28;20058;-76
2024/01/17 05:09:18;;;;;;;13.30;9.23;;;;;;;-1.42;100.00;99515.53;4979621;28;20056;-76
2024/01/17 05:11:46;;;;;;;14.40;8.88;;;;;;;-1.42;100.00;99505.19;5003430;28;20042;-76
2024/01/17 05:14:14;;;;;;;20.17;9.30;;;;;;;-1.43;100.00;99508.59;4982350;28;20057;-76
2024/01/17 05:16:42;;;;;;;14.98;10.32;;;;;;;-1.44;100.00;99509.41;4990066;28;20034;-76
2024/01/17 05:19:10;;;;;;;18.13;9.23;;;;;;;-1.46;100.00;99494.69;4980407;28;20057;-76
2024/01/17 05:21:41;;;;;;;12.90;8.57;;;;;;;-1.48;100.00;99493.78;4984219;28;20424;-76
2024/01/17 05:24:08;;;;;;;15.38;9.60;;;;;;;-1.50;100.00;99487.69;4945819;28;20054;-76
2024/01/17 05:26:36;;;;;;;13.02;8.63;;;;;;;-1.53;100.00;99488.50;5001439;28;20482;-76
2024/01/17 05:29:03;;;;;;;14.10;8.85;;;;;;;-1.53;100.00;99485.91;4996616;28;20053;-76
2024/01/17 05:31:31;;;;;;;12.35;8.57;;;;;;;-1.53;100.00;99487.59;5002411;28;20083;-76
2024/01/17 05:33:59;;;;;;;13.88;8.85;;;;;;;-1.54;100.00;99480.69;4977483;28;20054;-77
2024/01/17 05:36:26;;;;;;;15.38;9.10;;;;;;;-1.54;100.00;99478.09;4987354;28;20042;-76
2024/01/17 05:38:57;;;;;;;13.60;8.82;;;;;;;-1.55;100.00;99479.81;4937189;28;20046;-77
2024/01/17 05:41:25;;;;;;;17.02;8.90;;;;;;;-1.55;100.00;99474.66;5006010;28;20053;-76
2024/01/17 05:43:52;;;;;;;15.70;9.25;;;;;;;-1.56;100.00;99467.72;4986612;28;20061;-76
2024/01/17 05:46:20;;;;;;;15.10;8.98;;;;;;;-1.56;100.00;99475.47;4994109;28;20053;-77
2024/01/17 05:48:47;;;;;;;13.80;8.95;;;;;;;-1.57;100.00;99469.44;4986401;28;20064;-76
2024/01/17 05:51:15;;;;;;;15.13;9.75;;;;;;;-1.58;100.00;99459.06;4990841;28;20050;-76
2024/01/17 05:53:42;;;;;;;14.35;9.32;;;;;;;-1.59;100.00;99454.69;4963581;28;20082;-76
2024/01/17 05:56:10;;;;;;;13.95;8.25;;;;;;;-1.59;100.00;99453.03;4975162;28;20069;-76
2024/01/17 05:58:37;;;;;;;13.32;9.25;;;;;;;-1.60;100.00;99447.81;4986011;28;20053;-76
2024/01/17 06:01:05;;;;;;;12.55;9.15;;;;;;;-1.62;100.00;99452.06;4994800;28;20046;-76
2024/01/17 06:03:32;;;;;;;13.38;8.43;;;;;;;-1.62;100.00;99449.47;4977098;28;20046;-75
2024/01/17 06:06:00;;;;;;;13.23;8.50;;;;;;;-1.64;100.00;99445.97;4994784;28;20901;-76
2024/01/17 06:08:27;;;;;;;13.27;8.70;;;;;;;-1.66;100.00;99438.16;4944654;28;20061;-76
2024/01/17 06:10:55;;;;;;;14.40;8.68;;;;;;;-1.68;100.00;99433.75;4973207;28;20060;-75
2024/01/17 06:13:22;;;;;;;13.38;8.60;;;;;;;-1.70;100.00;99433.75;4998465;28;20050;-78
2024/01/17 06:15:49;;;;;;;16.73;8.38;;;;;;;-1.72;100.00;99431.94;5002321;28;20399;-77
2024/01/17 06:18:17;;;;;;;14.82;8.77;;;;;;;-1.74;100.00;99424.13;4988010;28;20427;-77
2024/01/17 06:20:44;;;;;;;17.50;8.63;;;;;;;-1.77;100.00;99426.63;4994831;28;20053;-77
2024/01/17 06:23:12;;;;;;;15.30;8.48;;;;;;;-1.79;100.00;99413.66;4998008;28;20445;-78
2024/01/17 06:25:39;;;;;;;12.95;7.82;;;;;;;-1.82;100.00;99415.28;4965239;28;20038;-77
2024/01/17 06:28:07;;;;;;;13.95;8.05;;;;;;;-1.86;100.00;99411.72;4995372;28;20506;-77
2024/01/17 06:30:35;;;;;;;15.32;8.98;;;;;;;-1.85;100.00;99410.91;5006767;28;20183;-77
2024/01/17 06:33:03;;;;;;;13.10;8.68;;;;;;;-1.87;100.00;99404.84;5025325;28;20045;-77
2024/01/17 06:35:31;;;;;;;13.90;9.00;;;;;;;-1.87;100.00;99404.84;4995526;28;20057;-76
2024/01/17 06:37:58;;;;;;;11.68;8.48;;;;;;;-1.88;100.00;99397.03;5007687;28;20053;-77
2024/01/17 06:40:26;;;;;;;14.50;8.68;;;;;;;-1.87;100.00;99396.19;4958732;28;20042;-77
2024/01/17 06:42:53;;;;;;;13.90;9.15;;;;;;;-1.86;100.00;99400.53;5014963;28;20049;-76
2024/01/17 06:45:20;;;;;;;14.60;7.43;;;;;;;-1.87;100.00;99402.25;5004507;28;20046;-77
2024/01/17 06:47:48;;;;;;;13.05;8.85;;;;;;;-1.87;100.00;99393.59;5010830;28;20469;-78
2024/01/17 06:50:18;;;;;;;15.35;8.25;;;;;;;-1.87;100.00;99386.75;5014375;28;20052;-77
2024/01/17 06:52:46;;;;;;;10.77;7.80;;;;;;;-1.88;100.00;99379.81;5006546;28;20073;-76
2024/01/17 06:55:14;;;;;;;13.80;7.90;;;;;;;-1.87;100.00;99370.38;4990447;28;20046;-77
2024/01/17 06:57:44;;;;;;;12.00;7.70;;;;;;;-1.89;100.00;99377.19;4989963;28;20053;-76
2024/01/17 07:00:13;;;;;;;16.88;8.30;;;;;;;-1.88;100.00;99373.78;5009870;28;20060;-76
2024/01/17 07:02:41;;;;;;;15.10;7.75;;;;;;;-1.89;100.00;99383.25;5006932;28;20053;-76
2024/01/17 07:05:09;;;;;;;10.75;7.35;;;;;;;-1.90;100.00;99381.50;5005494;28;20050;-75
2024/01/17 07:07:38;;;;;;;11.45;7.38;;;;;;;-1.88;100.00;99373.78;5000404;28;20045;-77
2024/01/17 07:10:08;;;;;;;14.90;8.07;;;;;;;-1.90;100.00;99378.91;4989994;28;20104;-78
2024/01/17 07:12:35;;;;;;;10.68;7.28;;;;;;;-1.89;100.00;99372.03;4950881;28;20057;-77
2024/01/17 07:15:03;;;;;;;13.93;7.35;;;;;;;-1.90;100.00;99368.59;4994790;28;20053;-78
2024/01/17 07:17:30;;;;;;;16.80;7.53;;;;;;;-1.92;100.00;99357.34;5005509;28;20038;-77
2024/01/17 07:19:58;;;;;;;11.40;8.05;;;;;;;-1.92;100.00;99367.66;5006693;28;20041;-77
2024/01/17 07:22:25;;;;;;;10.75;7.25;;;;;;;-1.93;100.00;99359.88;4995350;28;20056;-77
2024/01/17 07:24:52;;;;;;;10.52;7.45;;;;;;;-1.95;100.00;99359.81;5007131;28;20053;-77
2024/01/17 07:27:20;;;;;;;11.93;7.40;;;;;;;-1.98;100.00;99355.44;4962533;28;20125;-77
2024/01/17 07:29:47;;;;;;;13.35;7.07;;;;;;;-2.00;100.00;99364.84;4980537;28;20415;-77
2024/01/17 07:32:15;;;;;;;14.48;7.45;;;;;;;-2.01;100.00;99352.78;5003758;28;20064;-77
2024/01/17 07:34:42;;;;;;;11.20;7.35;;;;;;;-2.03;100.00;99348.41;5006776;28;20049;-77
2024/01/17 07:37:10;;;;;;;12.80;6.55;;;;;;;-2.04;100.00;99356.97;4999889;28;20045;-77
2024/01/17 07:39:43;;;;;;;11.05;7.07;;;;;;;-2.05;100.00;99353.50;5004704;28;20410;-77
2024/01/17 07:42:10;;;;;;;13.52;7.25;;;;;;;-2.07;100.00;99351.72;4962276;28;20054;-77
2024/01/17 07:44:38;;;;;;;10.07;7.03;;;;;;;-2.07;100.00;99355.19;4995695;28;20056;-77
2024/01/17 07:47:05;;;;;;;11.45;7.60;;;;;;;-2.07;100.00;99346.56;5023239;28;20876;-77
2024/01/17 07:49:40;;;;;;;13.68;8.02;;;;;;;-2.09;100.00;99354.25;5004806;28;20046;-77
2024/01/17 07:52:07;;;;;;;12.07;8.00;;;;;;;-2.11;100.00;99353.34;5005545;28;20053;-77
2024/01/17 07:54:36;;;;;;;10.05;7.30;;;;;;;-2.12;100.00;99364.47;4996084;28;20068;-77
2024/01/17 07:57:04;;;;;;;12.23;6.97;;;;;;;-2.11;100.00;99370.53;4995653;28;20493;-77
2024/01/17 07:59:31;;;;;;;10.98;7.13;;;;;;;-2.11;100.00;99357.63;4971511;28;20045;-77
2024/01/17 08:01:59;;;;;;;11.45;7.95;;;;;;;-2.11;100.00;99355.91;4987528;28;20499;-77
2024/01/17 08:04:26;;;;;;;10.52;7.18;;;;;;;-2.10;100.00;99355.06;5004893;28;20041;-77
2024/01/17 08:06:54;;;;;;;16.10;7.22;;;;;;;-2.11;100.00;99348.19;4998824;28;20052;-76
2024/01/17 08:09:21;;;;;;;12.80;7.95;;;;;;;-2.11;100.00;99335.28;4993740;28;20057;-76
2024/01/17 08:11:58;;;;;;;9.27;7.03;;;;;;;-2.09;100.00;99333.59;5007008;28;20084;-76
2024/01/17 08:14:26;;;;;;;14.63;7.25;;;;;;;-2.10;100.00;99331.84;4977931;28;20805;-76
2024/01/17 08:16:54;;;;;;;17.10;7.50;;;;;;;-2.09;100.00;99325.88;4991017;28;20048;-76
2024/01/17 08:19:21;;;;;;;11.30;7.55;;;;;;;-2.08;100.00;99326.72;4991889;28;20041;-76
2024/01/17 08:21:51;;;;;;;15.15;8.65;;;;;;;-2.05;100.00;99325.13;4990858;28;20065;-75
2024/01/17 08:24:18;;;;;;;10.30;7.72;;;;;;;-2.03;100.00;99320.88;4987720;28;20544;-76
2024/01/17 08:26:46;;;;;;;11.95;7.80;;;;;;;-2.00;100.00;99318.38;5010783;28;20052;-76
2024/01/17 08:29:16;;;;;;;11.82;7.60;;;;;;;-1.98;100.00;99316.72;4959135;28;20054;-76
2024/01/17 08:31:44;;;;;;;14.98;7.45;;;;;;;-1.96;100.00;99314.19;4994478;28;20041;-76
2024/01/17 08:34:12;;;;;;;13.27;8.18;;;;;;;-1.94;100.00;99316.81;4994753;28;20060;-78
2024/01/17 08:36:39;;;;;;;10.80;7.53;;;;;;;-1.96;100.00;99320.22;5017771;28;20060;-76
2024/01/17 08:39:07;;;;;;;13.02;7.75;;;;;;;-1.95;100.00;99313.34;5004290;28;20037;-76
2024/01/17 08:41:35;;;;;;;13.68;7.60;;;;;;;-1.93;100.00;99315.97;5027851;28;20365;-76
2024/01/17 08:44:02;;;;;;;12.43;7.35;;;;;;;-1.92;100.00;99310.00;4987338;28;20053;-76
2024/01/17 08:46:30;;;;;;;12.73;6.72;;;;;;;-1.94;100.00;99311.66;4982230;28;20049;-76
2024/01/17 08:48:57;;;;;;;12.07;7.38;;;;;;;-1.96;100.00;99304.72;4991318;28;20075;-76
2024/01/17 08:51:27;;;;;;;11.82;7.50;;;;;;;-1.93;100.00;99303.06;5005173;28;20046;-77
2024/01/17 08:53:55;;;;;;;7.30;5.50;;;;;;;-1.94;100.00;99302.19;5004104;28;20038;-76
2024/01/17 08:56:22;;;;;;;12.82;7.55;;;;;;;-1.92;100.00;99299.66;5009399;28;20045;-76
2024/01/17 08:58:49;;;;;;;11.27;7.70;;;;;;;-1.90;100.00;99298.88;4963185;28;20049;-76
2024/01/17 09:01:17;;;;;;;8.85;7.68;;;;;;;-1.85;100.00;99296.41;5006575;28;20065;-76
2024/01/17 09:03:47;;;;;;;10.13;7.25;;;;;;;-1.83;100.00;99300.78;4993012;28;20972;-76
2024/01/17 09:06:14;;;;;;;13.35;7.78;;;;;;;-1.82;100.00;99292.19;4985936;28;20423;-76
2024/01/17 09:08:42;;;;;;;10.02;7.65;;;;;;;-1.79;100.00;99292.28;5001023;28;20042;-76
2024/01/17 09:11:10;;;;;;;9.98;7.93;;;;;;;-1.78;100.00;99280.25;5002765;28;20053;-76
2024/01/17 09:13:37;;;;;;;13.98;7.53;;;;;;;-1.75;100.00;99275.19;4942988;28;20042;-76
2024/01/17 09:16:05;;;;;;;12.68;7.97;;;;;;;-1.73;100.00;99268.34;4991123;28;20076;-76
2024/01/17 09:18:32;;;;;;;13.23;7.97;;;;;;;-1.72;100.00;99251.13;4962513;28;20054;-77
2024/01/17 09:21:00;;;;;;;14.73;7.15;;;;;;;-1.70;100.00;99271.03;4981989;28;20494;-76
2024/01/17 09:23:28;;;;;;;11.63;7.57;;;;;;;-1.68;100.00;99258.13;5002338;28;20041;-76
2024/01/17 09:25:55;;;;;;;9.98;7.55;;;;;;;-1.65;100.00;99264.25;4970210;28;20062;-76
2024/01/17 09:28:22;;;;;;;13.30;8.45;;;;;;;-1.64;100.00;99272.91;4975272;28;20392;-76
2024/01/17 09:30:50;;;;;;;10.45;7.25;;;;;;;-1.61;100.00;99266.09;4930452;28;20084;-75
2024/01/17 09:33:17;;;;;;;12.07;7.00;;;;;;;-1.55;100.00;99264.50;4977231;28;20506;-76
2024/01/17 09:35:45;;;;;;;9.05;6.90;;;;;;;-1.52;100.00;99270.63;4972658;28;20061;-76
2024/01/17 09:38:24;;;;;;;11.80;7.15;;;;;;;-1.48;100.00;99269.88;5010242;28;20046;-77
2024/01/17 09:40:51;;;;;;;11.35;7.40;;;;;;;-1.45;100.00;99266.50;5000879;28;20046;-76
2024/01/17 09:43:19;;;;;;;11.40;7.22;;;;;;;-1.43;100.00;99270.88;4993482;28;20050;-76
2024/01/17 09:45:47;;;;;;;13.32;7.18;;;;;;;-1.39;100.00;99266.66;4958397;28;20045;-76
2024/01/17 09:48:15;;;;;;;11.60;7.30;;;;;;;-1.36;100.00;99271.91;4984682;28;20042;-76
2024/01/17 09:50:44;;;;;;;11.15;7.10;;;;;;;-1.33;100.00;99277.16;4961624;28;20062;-78
2024/01/17 09:53:13;;;;;;;10.13;7.55;;;;;;;-1.32;100.00;99278.00;4983568;28;20427;-77
2024/01/17 09:55:41;;;;;;;12.93;8.20;;;;;;;-1.32;100.00;99272.84;4982996;28;21417;-76
2024/01/17 09:58:12;;;;;;;11.82;7.25;;;;;;;-1.31;100.00;99274.59;4985043;28;20042;-76
2024/01/17 10:00:43;;;;;;;9.95;7.10;;;;;;;-1.33;100.00;99274.56;4943955;28;20058;-77
2024/01/17 10:03:20;;;;;;;10.68;7.43;;;;;;;-1.34;100.00;99275.41;4994290;28;20054;-77
2024/01/17 10:05:50;;;;;;;14.05;7.63;;;;;;;-1.32;100.00;99272.84;4982623;28;20057;-76
2024/01/17 10:08:18;;;;;;;11.95;7.32;;;;;;;-1.34;100.00;99259.91;5000841;28;20506;-76
2024/01/17 10:10:46;;;;;;;15.85;7.40;;;;;;;-1.33;100.00;99253.03;5001998;28;20794;-76
2024/01/17 10:13:13;;;;;;;11.45;6.78;;;;;;;-1.31;100.00;99257.38;5030163;28;20052;-76
2024/01/17 10:15:45;;;;;;;10.82;7.40;;;;;;;-1.29;100.00;99253.13;4985708;28;20084;-77
2024/01/17 10:18:12;;;;;;;13.07;7.22;;;;;;;-1.27;100.00;99251.44;4982584;28;20413;-76
2024/01/17 10:20:42;;;;;;;10.65;7.30;;;;;;;-1.25;100.00;99254.06;5003824;28;20050;-77
2024/01/17 10:23:09;;;;;;;11.32;7.35;;;;;;;-1.22;100.00;99254.16;4990388;28;20260;-76
2024/01/17 10:25:44;;;;;;;8.35;6.93;;;;;;;-1.20;100.00;99250.78;4989365;28;20056;-76
2024/01/17 10:28:11;;;;;;;15.05;7.40;;;;;;;-1.15;100.00;99242.25;5002277;28;20053;-76
2024/01/17 10:30:39;;;;;;;12.40;7.72;;;;;;;-1.10;100.00;99238.06;5005080;28;20050;-76
2024/01/17 10:33:07;;;;;;;9.73;6.75;;;;;;;-1.06;100.00;99232.13;4947871;28;20671;-76
2024/01/17 10:35:35;;;;;;;11.07;7.75;;;;;;;-1.07;100.00;99220.91;5025900;28;20045;-78
2024/01/17 10:38:03;;;;;;;9.57;7.15;;;;;;;-1.04;100.00;99227.88;5013706;28;20470;-76
2024/01/17 10:40:31;;;;;;;13.05;7.13;;;;;;;-1.00;100.00;99219.38;5008360;28;20049;-76
2024/01/17 10:43:13;;;;;;;9.20;7.15;;;;;;;-0.95;100.00;99222.06;5023445;28;20533;-77
2024/01/17 10:45:43;;;;;;;11.85;7.35;;;;;;;-0.90;100.00;99216.16;5003472;28;20046;-76
2024/01/17 10:48:10;;;;;;;11.27;7.07;;;;;;;-0.87;100.00;99221.41;4965723;28;20049;-77
2024/01/17 10:50:38;;;;;;;9.52;7.10;;;;;;;-0.81;100.00;99221.53;5008944;28;20088;-76
2024/01/17 10:53:08;;;;;;;9.60;7.07;;;;;;;-0.74;100.00;99216.50;4995535;28;20068;-76
2024/01/17 10:55:38;;;;;;;19.67;10.00;;;;;;;-0.69;100.00;99212.31;5008369;28;20076;-76
2024/01/17 10:58:11;;;;;;;13.13;8.13;;;;;;;-0.63;100.00;99209.84;5004847;28;20038;-76
2024/01/17 11:00:42;;;;;;;8.95;6.72;;;;;;;-0.58;100.00;99205.66;5007672;28;20061;-76
2024/01/17 11:03:18;;;;;;;14.10;6.78;;;;;;;-0.55;100.00;99207.41;4954102;28;20050;-76
2024/01/17 11:05:50;;;;;;;9.75;6.68;;;;;;;-0.53;100.00;99197.97;5034866;28;20052;-76
2024/01/17 11:08:19;;;;;;;10.52;7.03;;;;;;;-0.52;100.00;99199.72;5000850;28;20503;-77
2024/01/17 11:10:47;;;;;;;15.73;9.35;;;;;;;-0.49;100.00;99190.31;5007273;28;20037;-76
2024/01/17 11:13:16;;;;;;;15.75;9.20;;;;;;;-0.48;100.00;99193.78;5015198;28;20037;-78
2024/01/17 11:15:45;;;;;;;15.40;10.93;;;;;;;-0.49;100.00;99194.59;5016962;28;20045;-76
2024/01/17 11:18:14;;;;;;;17.52;11.23;;;;;;;-0.49;100.00;99192.00;4964036;28;20049;-77
2024/01/17 11:20:45;;;;;;;11.07;8.15;;;;;;;-0.54;100.00;99193.66;5040211;28;20041;-76
2024/01/17 11:23:27;;;;;;;11.80;7.13;;;;;;;-0.60;100.00;99194.41;4998029;28;20072;-76